sensor_id;sensor_type;location;lat;lon;timestamp;P1;durP1;ratioP1;P2;durP2;ratioP2
434;SDS011;204;48.942;9.256;2023-05-29T00:00:04;9.77;;;7.87;;
434;SDS011;204;48.942;9.256;2023-05-29T00:02:32;14.30;;;8.02;;
434;SDS011;204;48.942;9.256;2023-05-29T00:05:01;11.25;;;7.15;;
434;SDS011;204;48.942;9.256;2023-05-29T00:07:30;10.43;;;7.68;;
434;SDS011;204;48.942;9.256;2023-05-29T00:09:57;9.48;;;7.25;;
434;SDS011;204;48.942;9.256;2023-05-29T00:12:23;9.68;;;7.55;;
434;SDS011;204;48.942;9.256;2023-05-29T00:14:50;8.98;;;8.07;;
434;SDS011;204;48.942;9.256;2023-05-29T00:17:15;9.43;;;7.17;;
434;SDS011;204;48.942;9.256;2023-05-29T00:19:42;10.70;;;8.20;;
434;SDS011;204;48.942;9.256;2023-05-29T00:22:08;10.35;;;7.35;;
434;SDS011;204;48.942;9.256;2023-05-29T00:24:33;9.70;;;7.37;;
434;SDS011;204;48.942;9.256;2023-05-29T00:26:59;13.53;;;7.47;;
434;SDS011;204;48.942;9.256;2023-05-29T00:29:26;10.25;;;8.13;;
434;SDS011;204;48.942;9.256;2023-05-29T00:31:52;10.13;;;7.05;;
434;SDS011;204;48.942;9.256;2023-05-29T00:34:18;9.85;;;8.85;;
434;SDS011;204;48.942;9.256;2023-05-29T00:36:44;8.52;;;6.72;;
434;SDS011;204;48.942;9.256;2023-05-29T00:39:11;9.85;;;7.03;;
434;SDS011;204;48.942;9.256;2023-05-29T00:41:37;8.70;;;6.73;;
434;SDS011;204;48.942;9.256;2023-05-29T00:44:02;9.07;;;7.07;;
434;SDS011;204;48.942;9.256;2023-05-29T00:46:28;9.17;;;8.20;;
434;SDS011;204;48.942;9.256;2023-05-29T00:48:55;10.15;;;7.50;;
434;SDS011;204;48.942;9.256;2023-05-29T00:51:21;9.67;;;6.73;;
434;SDS011;204;48.942;9.256;2023-05-29T00:53:47;9.80;;;7.20;;
434;SDS011;204;48.942;9.256;2023-05-29T00:56:13;8.40;;;6.90;;
434;SDS011;204;48.942;9.256;2023-05-29T00:58:39;8.17;;;6.70;;
434;SDS011;204;48.942;9.256;2023-05-29T01:01:08;10.13;;;7.60;;
434;SDS011;204;48.942;9.256;2023-05-29T01:03:35;12.05;;;6.97;;
434;SDS011;204;48.942;9.256;2023-05-29T01:06:00;10.57;;;6.90;;
434;SDS011;204;48.942;9.256;2023-05-29T01:08:28;10.93;;;7.38;;
434;SDS011;204;48.942;9.256;2023-05-29T01:10:55;9.00;;;7.83;;
434;SDS011;204;48.942;9.256;2023-05-29T01:13:27;9.90;;;7.35;;
434;SDS011;204;48.942;9.256;2023-05-29T01:16:01;8.93;;;7.95;;
434;SDS011;204;48.942;9.256;2023-05-29T01:18:47;9.15;;;6.93;;
434;SDS011;204;48.942;9.256;2023-05-29T01:24:56;12.27;;;7.30;;
434;SDS011;204;48.942;9.256;2023-05-29T01:27:18;8.05;;;7.63;;
434;SDS011;204;48.942;9.256;2023-05-29T01:29:46;13.70;;;8.45;;
434;SDS011;204;48.942;9.256;2023-05-29T01:32:15;11.23;;;7.15;;
434;SDS011;204;48.942;9.256;2023-05-29T01:34:41;11.98;;;8.10;;
434;SDS011;204;48.942;9.256;2023-05-29T01:37:06;10.40;;;7.27;;
434;SDS011;204;48.942;9.256;2023-05-29T01:39:32;8.40;;;6.90;;
434;SDS011;204;48.942;9.256;2023-05-29T01:41:58;9.35;;;7.45;;
434;SDS011;204;48.942;9.256;2023-05-29T01:44:25;12.48;;;8.18;;
434;SDS011;204;48.942;9.256;2023-05-29T01:46:51;8.95;;;7.63;;
434;SDS011;204;48.942;9.256;2023-05-29T01:49:17;11.10;;;7.70;;
434;SDS011;204;48.942;9.256;2023-05-29T01:51:43;8.63;;;7.00;;
434;SDS011;204;48.942;9.256;2023-05-29T01:54:09;9.50;;;7.50;;
434;SDS011;204;48.942;9.256;2023-05-29T01:56:35;11.53;;;6.40;;
434;SDS011;204;48.942;9.256;2023-05-29T01:59:02;10.95;;;7.30;;
434;SDS011;204;48.942;9.256;2023-05-29T02:01:28;9.90;;;7.50;;
434;SDS011;204;48.942;9.256;2023-05-29T02:03:53;8.77;;;7.03;;
434;SDS011;204;48.942;9.256;2023-05-29T02:06:19;8.03;;;7.00;;
434;SDS011;204;48.942;9.256;2023-05-29T02:08:45;18.23;;;7.83;;
434;SDS011;204;48.942;9.256;2023-05-29T02:11:11;11.57;;;7.32;;
434;SDS011;204;48.942;9.256;2023-05-29T02:13:37;10.52;;;7.93;;
434;SDS011;204;48.942;9.256;2023-05-29T02:16:03;8.70;;;6.90;;
434;SDS011;204;48.942;9.256;2023-05-29T02:18:29;11.30;;;7.60;;
434;SDS011;204;48.942;9.256;2023-05-29T02:20:54;9.90;;;7.37;;
434;SDS011;204;48.942;9.256;2023-05-29T02:23:20;8.63;;;6.70;;
434;SDS011;204;48.942;9.256;2023-05-29T02:25:46;8.93;;;7.20;;
434;SDS011;204;48.942;9.256;2023-05-29T02:28:11;10.90;;;7.30;;
434;SDS011;204;48.942;9.256;2023-05-29T02:30:37;9.33;;;6.67;;
434;SDS011;204;48.942;9.256;2023-05-29T02:33:03;9.03;;;7.27;;
434;SDS011;204;48.942;9.256;2023-05-29T02:35:28;7.00;;;6.40;;
434;SDS011;204;48.942;9.256;2023-05-29T02:37:54;11.23;;;6.70;;
434;SDS011;204;48.942;9.256;2023-05-29T02:40:20;7.73;;;6.37;;
434;SDS011;204;48.942;9.256;2023-05-29T02:42:49;11.10;;;7.18;;
434;SDS011;204;48.942;9.256;2023-05-29T02:45:15;12.05;;;7.13;;
434;SDS011;204;48.942;9.256;2023-05-29T02:47:41;7.95;;;6.38;;
434;SDS011;204;48.942;9.256;2023-05-29T02:50:07;11.93;;;6.87;;
434;SDS011;204;48.942;9.256;2023-05-29T02:52:34;10.70;;;7.88;;
434;SDS011;204;48.942;9.256;2023-05-29T02:55:01;10.63;;;6.97;;
434;SDS011;204;48.942;9.256;2023-05-29T02:57:28;11.07;;;8.48;;
434;SDS011;204;48.942;9.256;2023-05-29T02:59:53;11.43;;;7.50;;
434;SDS011;204;48.942;9.256;2023-05-29T03:02:20;12.02;;;8.32;;
434;SDS011;204;48.942;9.256;2023-05-29T03:04:45;9.40;;;7.40;;
434;SDS011;204;48.942;9.256;2023-05-29T03:07:11;11.03;;;7.80;;
434;SDS011;204;48.942;9.256;2023-05-29T03:09:37;8.20;;;6.75;;
434;SDS011;204;48.942;9.256;2023-05-29T03:12:03;9.70;;;7.07;;
434;SDS011;204;48.942;9.256;2023-05-29T03:14:29;12.20;;;7.20;;
434;SDS011;204;48.942;9.256;2023-05-29T03:16:55;9.17;;;7.77;;
434;SDS011;204;48.942;9.256;2023-05-29T03:19:21;10.53;;;6.80;;
434;SDS011;204;48.942;9.256;2023-05-29T03:21:46;8.30;;;6.40;;
434;SDS011;204;48.942;9.256;2023-05-29T03:24:12;10.40;;;7.80;;
434;SDS011;204;48.942;9.256;2023-05-29T03:26:41;8.57;;;7.20;;
434;SDS011;204;48.942;9.256;2023-05-29T03:29:07;10.50;;;7.45;;
434;SDS011;204;48.942;9.256;2023-05-29T03:31:32;9.20;;;8.10;;
434;SDS011;204;48.942;9.256;2023-05-29T03:33:58;11.43;;;7.50;;
434;SDS011;204;48.942;9.256;2023-05-29T03:36:24;10.40;;;8.07;;
434;SDS011;204;48.942;9.256;2023-05-29T03:38:49;8.97;;;7.20;;
434;SDS011;204;48.942;9.256;2023-05-29T03:41:15;8.73;;;7.70;;
434;SDS011;204;48.942;9.256;2023-05-29T03:43:41;10.63;;;6.50;;
434;SDS011;204;48.942;9.256;2023-05-29T03:46:06;16.10;;;7.63;;
434;SDS011;204;48.942;9.256;2023-05-29T03:48:32;9.87;;;7.27;;
434;SDS011;204;48.942;9.256;2023-05-29T03:50:57;9.20;;;6.50;;
434;SDS011;204;48.942;9.256;2023-05-29T03:53:23;11.40;;;7.30;;
434;SDS011;204;48.942;9.256;2023-05-29T03:55:48;8.77;;;7.47;;
434;SDS011;204;48.942;9.256;2023-05-29T03:58:14;7.40;;;6.70;;
434;SDS011;204;48.942;9.256;2023-05-29T04:00:40;8.57;;;7.35;;
434;SDS011;204;48.942;9.256;2023-05-29T04:03:06;9.40;;;7.07;;
434;SDS011;204;48.942;9.256;2023-05-29T04:05:32;8.70;;;7.20;;
434;SDS011;204;48.942;9.256;2023-05-29T04:07:57;10.40;;;6.77;;
434;SDS011;204;48.942;9.256;2023-05-29T04:10:23;8.10;;;7.10;;
434;SDS011;204;48.942;9.256;2023-05-29T04:12:49;9.13;;;7.43;;
434;SDS011;204;48.942;9.256;2023-05-29T04:15:15;9.55;;;6.60;;
434;SDS011;204;48.942;9.256;2023-05-29T04:17:41;8.23;;;6.73;;
434;SDS011;204;48.942;9.256;2023-05-29T04:20:07;10.50;;;6.70;;
434;SDS011;204;48.942;9.256;2023-05-29T04:22:34;8.05;;;6.28;;
434;SDS011;204;48.942;9.256;2023-05-29T04:25:03;10.55;;;7.50;;
434;SDS011;204;48.942;9.256;2023-05-29T04:27:30;8.43;;;6.35;;
434;SDS011;204;48.942;9.256;2023-05-29T04:29:57;9.95;;;6.95;;
434;SDS011;204;48.942;9.256;2023-05-29T04:32:23;8.17;;;6.30;;
434;SDS011;204;48.942;9.256;2023-05-29T04:34:48;6.37;;;6.00;;
434;SDS011;204;48.942;9.256;2023-05-29T04:37:16;5.97;;;5.68;;
434;SDS011;204;48.942;9.256;2023-05-29T04:39:42;6.78;;;5.75;;
434;SDS011;204;48.942;9.256;2023-05-29T04:42:07;7.60;;;5.47;;
434;SDS011;204;48.942;9.256;2023-05-29T04:44:33;6.80;;;5.23;;
434;SDS011;204;48.942;9.256;2023-05-29T04:46:59;7.13;;;4.73;;
434;SDS011;204;48.942;9.256;2023-05-29T04:49:27;8.85;;;5.30;;
434;SDS011;204;48.942;9.256;2023-05-29T04:51:53;8.77;;;5.93;;
434;SDS011;204;48.942;9.256;2023-05-29T04:54:19;8.60;;;6.50;;
434;SDS011;204;48.942;9.256;2023-05-29T04:56:46;8.80;;;6.20;;
434;SDS011;204;48.942;9.256;2023-05-29T04:59:12;6.87;;;6.47;;
434;SDS011;204;48.942;9.256;2023-05-29T05:01:38;8.53;;;6.70;;
434;SDS011;204;48.942;9.256;2023-05-29T05:04:04;9.77;;;7.93;;
434;SDS011;204;48.942;9.256;2023-05-29T05:06:30;8.40;;;6.90;;
434;SDS011;204;48.942;9.256;2023-05-29T05:08:55;13.77;;;8.20;;
434;SDS011;204;48.942;9.256;2023-05-29T05:11:21;10.60;;;8.77;;
434;SDS011;204;48.942;9.256;2023-05-29T05:13:48;8.30;;;7.50;;
434;SDS011;204;48.942;9.256;2023-05-29T05:16:14;13.57;;;8.10;;
434;SDS011;204;48.942;9.256;2023-05-29T05:18:39;11.70;;;7.70;;
434;SDS011;204;48.942;9.256;2023-05-29T05:21:05;9.83;;;7.13;;
434;SDS011;204;48.942;9.256;2023-05-29T05:23:31;10.40;;;7.00;;
434;SDS011;204;48.942;9.256;2023-05-29T05:25:57;8.33;;;6.90;;
434;SDS011;204;48.942;9.256;2023-05-29T05:28:22;10.63;;;7.27;;
434;SDS011;204;48.942;9.256;2023-05-29T05:30:48;8.10;;;6.60;;
434;SDS011;204;48.942;9.256;2023-05-29T05:33:14;9.10;;;7.40;;
434;SDS011;204;48.942;9.256;2023-05-29T05:35:39;8.40;;;6.30;;
434;SDS011;204;48.942;9.256;2023-05-29T05:38:05;11.30;;;6.90;;
434;SDS011;204;48.942;9.256;2023-05-29T05:40:31;8.33;;;6.27;;
434;SDS011;204;48.942;9.256;2023-05-29T05:42:57;6.83;;;5.27;;
434;SDS011;204;48.942;9.256;2023-05-29T05:45:22;8.37;;;5.43;;
434;SDS011;204;48.942;9.256;2023-05-29T05:47:48;6.33;;;5.30;;
434;SDS011;204;48.942;9.256;2023-05-29T05:50:14;6.67;;;5.40;;
434;SDS011;204;48.942;9.256;2023-05-29T05:52:40;7.20;;;4.90;;
434;SDS011;204;48.942;9.256;2023-05-29T05:55:05;7.70;;;4.80;;
434;SDS011;204;48.942;9.256;2023-05-29T05:57:32;8.00;;;5.40;;
434;SDS011;204;48.942;9.256;2023-05-29T05:59:59;6.10;;;5.50;;
434;SDS011;204;48.942;9.256;2023-05-29T06:02:25;7.07;;;6.30;;
434;SDS011;204;48.942;9.256;2023-05-29T06:04:51;6.57;;;5.40;;
434;SDS011;204;48.942;9.256;2023-05-29T06:07:16;6.53;;;5.50;;
434;SDS011;204;48.942;9.256;2023-05-29T06:09:43;7.60;;;6.23;;
434;SDS011;204;48.942;9.256;2023-05-29T06:12:09;6.57;;;5.07;;
434;SDS011;204;48.942;9.256;2023-05-29T06:14:34;6.87;;;4.70;;
434;SDS011;204;48.942;9.256;2023-05-29T06:17:00;7.20;;;5.17;;
434;SDS011;204;48.942;9.256;2023-05-29T06:19:26;6.70;;;6.20;;
434;SDS011;204;48.942;9.256;2023-05-29T06:21:52;9.53;;;5.30;;
434;SDS011;204;48.942;9.256;2023-05-29T06:24:17;6.30;;;5.23;;
434;SDS011;204;48.942;9.256;2023-05-29T06:26:43;4.67;;;4.37;;
434;SDS011;204;48.942;9.256;2023-05-29T06:29:08;6.40;;;4.97;;
434;SDS011;204;48.942;9.256;2023-05-29T06:31:34;6.03;;;5.07;;
434;SDS011;204;48.942;9.256;2023-05-29T06:34:00;9.90;;;5.90;;
434;SDS011;204;48.942;9.256;2023-05-29T06:36:25;7.17;;;5.63;;
434;SDS011;204;48.942;9.256;2023-05-29T06:38:51;9.30;;;4.60;;
434;SDS011;204;48.942;9.256;2023-05-29T06:41:17;5.73;;;4.23;;
434;SDS011;204;48.942;9.256;2023-05-29T06:43:42;6.17;;;4.20;;
434;SDS011;204;48.942;9.256;2023-05-29T06:46:08;8.67;;;4.80;;
434;SDS011;204;48.942;9.256;2023-05-29T06:48:34;3.93;;;3.70;;
434;SDS011;204;48.942;9.256;2023-05-29T06:51:00;6.13;;;3.73;;
434;SDS011;204;48.942;9.256;2023-05-29T06:53:34;5.37;;;4.40;;
434;SDS011;204;48.942;9.256;2023-05-29T06:56:00;5.90;;;3.80;;
434;SDS011;204;48.942;9.256;2023-05-29T06:58:26;6.43;;;3.60;;
434;SDS011;204;48.942;9.256;2023-05-29T07:00:52;6.93;;;3.90;;
434;SDS011;204;48.942;9.256;2023-05-29T07:03:17;6.00;;;4.40;;
434;SDS011;204;48.942;9.256;2023-05-29T07:05:43;6.40;;;4.70;;
434;SDS011;204;48.942;9.256;2023-05-29T07:08:09;6.93;;;4.80;;
434;SDS011;204;48.942;9.256;2023-05-29T07:10:34;5.90;;;3.43;;
434;SDS011;204;48.942;9.256;2023-05-29T07:13:00;5.07;;;4.20;;
434;SDS011;204;48.942;9.256;2023-05-29T07:15:25;3.60;;;3.40;;
434;SDS011;204;48.942;9.256;2023-05-29T07:17:51;6.60;;;3.67;;
434;SDS011;204;48.942;9.256;2023-05-29T07:20:16;4.33;;;3.73;;
434;SDS011;204;48.942;9.256;2023-05-29T07:22:44;6.60;;;3.73;;
434;SDS011;204;48.942;9.256;2023-05-29T07:25:10;6.73;;;4.27;;
434;SDS011;204;48.942;9.256;2023-05-29T07:27:36;4.67;;;3.80;;
434;SDS011;204;48.942;9.256;2023-05-29T07:30:02;6.43;;;4.17;;
434;SDS011;204;48.942;9.256;2023-05-29T07:32:28;6.43;;;3.90;;
434;SDS011;204;48.942;9.256;2023-05-29T07:34:53;3.53;;;3.20;;
434;SDS011;204;48.942;9.256;2023-05-29T07:37:20;4.73;;;3.73;;
434;SDS011;204;48.942;9.256;2023-05-29T07:39:48;6.23;;;3.50;;
434;SDS011;204;48.942;9.256;2023-05-29T07:42:14;3.67;;;3.43;;
434;SDS011;204;48.942;9.256;2023-05-29T07:44:39;4.63;;;3.40;;
434;SDS011;204;48.942;9.256;2023-05-29T07:47:07;7.17;;;4.80;;
434;SDS011;204;48.942;9.256;2023-05-29T07:49:33;7.23;;;4.60;;
434;SDS011;204;48.942;9.256;2023-05-29T07:52:00;5.37;;;3.87;;
434;SDS011;204;48.942;9.256;2023-05-29T07:54:30;4.83;;;3.87;;
434;SDS011;204;48.942;9.256;2023-05-29T07:56:57;5.00;;;3.27;;
434;SDS011;204;48.942;9.256;2023-05-29T07:59:24;6.80;;;3.80;;
434;SDS011;204;48.942;9.256;2023-05-29T08:01:50;6.40;;;4.50;;
434;SDS011;204;48.942;9.256;2023-05-29T08:04:16;5.83;;;4.33;;
434;SDS011;204;48.942;9.256;2023-05-29T08:06:42;5.47;;;3.70;;
434;SDS011;204;48.942;9.256;2023-05-29T08:09:08;6.47;;;5.87;;
434;SDS011;204;48.942;9.256;2023-05-29T08:11:34;7.83;;;4.00;;
434;SDS011;204;48.942;9.256;2023-05-29T08:14:03;6.30;;;3.77;;
434;SDS011;204;48.942;9.256;2023-05-29T08:16:29;4.37;;;3.60;;
434;SDS011;204;48.942;9.256;2023-05-29T08:18:54;4.97;;;4.47;;
434;SDS011;204;48.942;9.256;2023-05-29T08:21:21;5.63;;;4.10;;
434;SDS011;204;48.942;9.256;2023-05-29T08:23:46;7.53;;;4.67;;
434;SDS011;204;48.942;9.256;2023-05-29T08:26:12;3.93;;;3.60;;
434;SDS011;204;48.942;9.256;2023-05-29T08:28:38;5.53;;;3.83;;
434;SDS011;204;48.942;9.256;2023-05-29T08:31:04;6.00;;;4.10;;
434;SDS011;204;48.942;9.256;2023-05-29T08:33:29;5.30;;;4.23;;
434;SDS011;204;48.942;9.256;2023-05-29T08:35:56;4.70;;;4.40;;
434;SDS011;204;48.942;9.256;2023-05-29T08:38:23;4.20;;;3.80;;
434;SDS011;204;48.942;9.256;2023-05-29T08:40:50;4.70;;;4.23;;
434;SDS011;204;48.942;9.256;2023-05-29T08:43:22;7.30;;;4.33;;
434;SDS011;204;48.942;9.256;2023-05-29T08:45:54;6.20;;;4.80;;
434;SDS011;204;48.942;9.256;2023-05-29T08:48:24;5.57;;;5.10;;
434;SDS011;204;48.942;9.256;2023-05-29T08:50:50;4.87;;;3.70;;
434;SDS011;204;48.942;9.256;2023-05-29T08:53:19;5.60;;;4.27;;
434;SDS011;204;48.942;9.256;2023-05-29T08:55:46;3.90;;;3.77;;
434;SDS011;204;48.942;9.256;2023-05-29T08:58:15;5.93;;;4.33;;
434;SDS011;204;48.942;9.256;2023-05-29T09:00:42;5.27;;;4.17;;
434;SDS011;204;48.942;9.256;2023-05-29T09:03:08;8.20;;;4.07;;
434;SDS011;204;48.942;9.256;2023-05-29T09:05:34;6.93;;;4.13;;
434;SDS011;204;48.942;9.256;2023-05-29T09:08:05;6.30;;;4.90;;
434;SDS011;204;48.942;9.256;2023-05-29T09:10:32;6.50;;;4.77;;
434;SDS011;204;48.942;9.256;2023-05-29T09:12:58;7.13;;;4.23;;
434;SDS011;204;48.942;9.256;2023-05-29T09:15:24;5.03;;;4.40;;
434;SDS011;204;48.942;9.256;2023-05-29T09:17:53;5.23;;;4.33;;
434;SDS011;204;48.942;9.256;2023-05-29T09:20:22;6.50;;;4.00;;
434;SDS011;204;48.942;9.256;2023-05-29T09:22:52;4.80;;;4.30;;
434;SDS011;204;48.942;9.256;2023-05-29T09:25:18;5.57;;;4.63;;
434;SDS011;204;48.942;9.256;2023-05-29T09:27:47;4.63;;;3.80;;
434;SDS011;204;48.942;9.256;2023-05-29T09:30:30;5.77;;;3.70;;
434;SDS011;204;48.942;9.256;2023-05-29T09:32:56;5.43;;;3.57;;
434;SDS011;204;48.942;9.256;2023-05-29T09:35:23;6.57;;;3.60;;
434;SDS011;204;48.942;9.256;2023-05-29T09:37:49;5.67;;;4.00;;
434;SDS011;204;48.942;9.256;2023-05-29T09:40:15;6.70;;;4.87;;
434;SDS011;204;48.942;9.256;2023-05-29T09:42:41;5.30;;;3.80;;
434;SDS011;204;48.942;9.256;2023-05-29T09:45:06;9.90;;;4.73;;
434;SDS011;204;48.942;9.256;2023-05-29T09:47:33;4.63;;;3.73;;
434;SDS011;204;48.942;9.256;2023-05-29T09:50:00;5.83;;;4.10;;
434;SDS011;204;48.942;9.256;2023-05-29T09:52:26;3.80;;;3.60;;
434;SDS011;204;48.942;9.256;2023-05-29T09:54:55;4.30;;;3.60;;
434;SDS011;204;48.942;9.256;2023-05-29T09:57:22;2.93;;;2.83;;
434;SDS011;204;48.942;9.256;2023-05-29T09:59:49;9.33;;;4.37;;
434;SDS011;204;48.942;9.256;2023-05-29T10:02:17;7.13;;;4.00;;
434;SDS011;204;48.942;9.256;2023-05-29T10:04:44;5.10;;;3.80;;
434;SDS011;204;48.942;9.256;2023-05-29T10:07:15;6.20;;;3.90;;
434;SDS011;204;48.942;9.256;2023-05-29T10:09:50;3.50;;;2.97;;
434;SDS011;204;48.942;9.256;2023-05-29T10:12:19;6.47;;;3.70;;
434;SDS011;204;48.942;9.256;2023-05-29T10:14:46;4.43;;;3.37;;
434;SDS011;204;48.942;9.256;2023-05-29T10:17:15;7.37;;;3.50;;
434;SDS011;204;48.942;9.256;2023-05-29T10:19:45;4.53;;;4.23;;
434;SDS011;204;48.942;9.256;2023-05-29T10:22:13;5.37;;;3.20;;
434;SDS011;204;48.942;9.256;2023-05-29T10:24:44;4.40;;;3.60;;
434;SDS011;204;48.942;9.256;2023-05-29T10:27:13;3.63;;;3.50;;
434;SDS011;204;48.942;9.256;2023-05-29T10:29:39;6.47;;;4.10;;
434;SDS011;204;48.942;9.256;2023-05-29T10:32:22;7.03;;;3.60;;
434;SDS011;204;48.942;9.256;2023-05-29T10:37:49;5.40;;;3.70;;
434;SDS011;204;48.942;9.256;2023-05-29T10:40:22;3.90;;;3.70;;
434;SDS011;204;48.942;9.256;2023-05-29T10:42:50;6.30;;;4.00;;
434;SDS011;204;48.942;9.256;2023-05-29T10:50:50;5.80;;;3.40;;
434;SDS011;204;48.942;9.256;2023-05-29T10:53:26;5.97;;;4.10;;
434;SDS011;204;48.942;9.256;2023-05-29T10:55:55;3.60;;;3.30;;
434;SDS011;204;48.942;9.256;2023-05-29T10:58:22;4.60;;;3.50;;
434;SDS011;204;48.942;9.256;2023-05-29T11:00:49;5.33;;;3.00;;
434;SDS011;204;48.942;9.256;2023-05-29T11:03:19;3.93;;;3.00;;
434;SDS011;204;48.942;9.256;2023-05-29T11:08:39;6.37;;;3.50;;
434;SDS011;204;48.942;9.256;2023-05-29T11:11:07;4.60;;;3.60;;
434;SDS011;204;48.942;9.256;2023-05-29T11:13:36;3.80;;;2.87;;
434;SDS011;204;48.942;9.256;2023-05-29T11:18:55;4.97;;;3.40;;
434;SDS011;204;48.942;9.256;2023-05-29T11:24:01;2.90;;;2.70;;
434;SDS011;204;48.942;9.256;2023-05-29T11:26:31;3.77;;;2.97;;
434;SDS011;204;48.942;9.256;2023-05-29T11:29:01;4.67;;;2.73;;
434;SDS011;204;48.942;9.256;2023-05-29T11:31:29;3.00;;;2.50;;
434;SDS011;204;48.942;9.256;2023-05-29T11:34:01;5.27;;;3.40;;
434;SDS011;204;48.942;9.256;2023-05-29T11:36:30;3.90;;;3.23;;
434;SDS011;204;48.942;9.256;2023-05-29T11:38:57;3.13;;;2.90;;
434;SDS011;204;48.942;9.256;2023-05-29T11:41:23;7.80;;;3.10;;
434;SDS011;204;48.942;9.256;2023-05-29T11:43:55;4.67;;;2.80;;
434;SDS011;204;48.942;9.256;2023-05-29T11:46:27;5.57;;;3.13;;
434;SDS011;204;48.942;9.256;2023-05-29T11:48:55;3.90;;;2.50;;
434;SDS011;204;48.942;9.256;2023-05-29T11:51:21;3.83;;;3.10;;
434;SDS011;204;48.942;9.256;2023-05-29T11:53:47;4.30;;;3.23;;
434;SDS011;204;48.942;9.256;2023-05-29T11:56:13;3.30;;;3.10;;
434;SDS011;204;48.942;9.256;2023-05-29T11:58:39;15.97;;;3.57;;
434;SDS011;204;48.942;9.256;2023-05-29T12:01:06;3.20;;;2.60;;
434;SDS011;204;48.942;9.256;2023-05-29T12:03:39;3.87;;;2.93;;
434;SDS011;204;48.942;9.256;2023-05-29T12:06:06;4.30;;;3.40;;
434;SDS011;204;48.942;9.256;2023-05-29T12:08:33;2.90;;;2.70;;
434;SDS011;204;48.942;9.256;2023-05-29T12:10:59;3.93;;;3.73;;
434;SDS011;204;48.942;9.256;2023-05-29T12:13:26;3.80;;;2.73;;
434;SDS011;204;48.942;9.256;2023-05-29T12:15:53;4.37;;;3.27;;
434;SDS011;204;48.942;9.256;2023-05-29T12:18:22;3.23;;;2.80;;
434;SDS011;204;48.942;9.256;2023-05-29T12:20:48;5.00;;;3.00;;
434;SDS011;204;48.942;9.256;2023-05-29T12:23:13;5.33;;;3.33;;
434;SDS011;204;48.942;9.256;2023-05-29T12:25:39;4.30;;;3.20;;
434;SDS011;204;48.942;9.256;2023-05-29T12:28:05;5.83;;;3.83;;
434;SDS011;204;48.942;9.256;2023-05-29T12:30:31;4.93;;;3.30;;
434;SDS011;204;48.942;9.256;2023-05-29T12:33:03;3.57;;;3.27;;
434;SDS011;204;48.942;9.256;2023-05-29T12:35:31;4.73;;;3.43;;
434;SDS011;204;48.942;9.256;2023-05-29T12:40:24;3.20;;;2.83;;
434;SDS011;204;48.942;9.256;2023-05-29T12:42:55;9.50;;;3.57;;
434;SDS011;204;48.942;9.256;2023-05-29T12:45:27;3.43;;;3.27;;
434;SDS011;204;48.942;9.256;2023-05-29T12:47:58;3.47;;;3.27;;
434;SDS011;204;48.942;9.256;2023-05-29T12:50:29;3.70;;;3.00;;
434;SDS011;204;48.942;9.256;2023-05-29T12:55:27;3.47;;;3.30;;
434;SDS011;204;48.942;9.256;2023-05-29T12:57:54;5.13;;;2.90;;
434;SDS011;204;48.942;9.256;2023-05-29T13:00:21;3.07;;;2.87;;
434;SDS011;204;48.942;9.256;2023-05-29T13:02:48;3.90;;;3.70;;
434;SDS011;204;48.942;9.256;2023-05-29T13:05:15;3.90;;;2.53;;
434;SDS011;204;48.942;9.256;2023-05-29T13:07:44;3.40;;;3.27;;
434;SDS011;204;48.942;9.256;2023-05-29T13:10:14;4.63;;;3.20;;
434;SDS011;204;48.942;9.256;2023-05-29T13:12:40;5.03;;;2.70;;
434;SDS011;204;48.942;9.256;2023-05-29T13:15:07;3.10;;;2.73;;
434;SDS011;204;48.942;9.256;2023-05-29T13:17:33;3.43;;;3.17;;
434;SDS011;204;48.942;9.256;2023-05-29T13:19:59;5.27;;;4.47;;
434;SDS011;204;48.942;9.256;2023-05-29T13:22:24;4.67;;;3.23;;
434;SDS011;204;48.942;9.256;2023-05-29T13:24:55;3.33;;;3.10;;
434;SDS011;204;48.942;9.256;2023-05-29T13:27:24;4.47;;;3.30;;
434;SDS011;204;48.942;9.256;2023-05-29T13:29:50;3.50;;;2.90;;
434;SDS011;204;48.942;9.256;2023-05-29T13:32:16;3.83;;;3.10;;
434;SDS011;204;48.942;9.256;2023-05-29T13:34:42;6.63;;;3.30;;
434;SDS011;204;48.942;9.256;2023-05-29T13:37:07;4.20;;;3.80;;
434;SDS011;204;48.942;9.256;2023-05-29T13:39:33;6.70;;;3.37;;
434;SDS011;204;48.942;9.256;2023-05-29T13:41:59;3.00;;;2.80;;
434;SDS011;204;48.942;9.256;2023-05-29T13:44:25;2.90;;;2.73;;
434;SDS011;204;48.942;9.256;2023-05-29T13:46:51;3.30;;;2.93;;
434;SDS011;204;48.942;9.256;2023-05-29T13:49:16;2.97;;;2.80;;
434;SDS011;204;48.942;9.256;2023-05-29T13:51:42;3.03;;;2.83;;
434;SDS011;204;48.942;9.256;2023-05-29T13:54:07;5.40;;;3.37;;
434;SDS011;204;48.942;9.256;2023-05-29T13:56:33;4.53;;;2.93;;
434;SDS011;204;48.942;9.256;2023-05-29T13:58:58;3.33;;;2.50;;
434;SDS011;204;48.942;9.256;2023-05-29T14:01:30;5.60;;;3.50;;
434;SDS011;204;48.942;9.256;2023-05-29T14:03:57;2.93;;;2.73;;
434;SDS011;204;48.942;9.256;2023-05-29T14:06:22;2.97;;;2.80;;
434;SDS011;204;48.942;9.256;2023-05-29T14:08:48;2.87;;;2.57;;
434;SDS011;204;48.942;9.256;2023-05-29T14:11:13;4.20;;;2.90;;
434;SDS011;204;48.942;9.256;2023-05-29T14:13:42;3.50;;;3.30;;
434;SDS011;204;48.942;9.256;2023-05-29T14:16:07;3.70;;;3.27;;
434;SDS011;204;48.942;9.256;2023-05-29T14:18:33;4.70;;;3.40;;
434;SDS011;204;48.942;9.256;2023-05-29T14:20:59;5.03;;;3.13;;
434;SDS011;204;48.942;9.256;2023-05-29T14:23:27;3.30;;;2.43;;
434;SDS011;204;48.942;9.256;2023-05-29T14:25:53;3.30;;;3.00;;
434;SDS011;204;48.942;9.256;2023-05-29T14:28:18;4.27;;;3.17;;
434;SDS011;204;48.942;9.256;2023-05-29T14:30:44;3.80;;;3.50;;
434;SDS011;204;48.942;9.256;2023-05-29T14:33:10;5.53;;;2.70;;
434;SDS011;204;48.942;9.256;2023-05-29T14:35:35;4.90;;;2.90;;
434;SDS011;204;48.942;9.256;2023-05-29T14:38:01;3.07;;;2.53;;
434;SDS011;204;48.942;9.256;2023-05-29T14:40:27;3.17;;;2.50;;
434;SDS011;204;48.942;9.256;2023-05-29T14:42:53;5.93;;;2.73;;
434;SDS011;204;48.942;9.256;2023-05-29T14:45:19;4.17;;;3.07;;
434;SDS011;204;48.942;9.256;2023-05-29T14:47:44;3.80;;;3.57;;
434;SDS011;204;48.942;9.256;2023-05-29T14:50:11;5.67;;;2.87;;
434;SDS011;204;48.942;9.256;2023-05-29T14:52:40;2.67;;;2.47;;
434;SDS011;204;48.942;9.256;2023-05-29T14:55:06;5.20;;;4.03;;
434;SDS011;204;48.942;9.256;2023-05-29T14:57:32;3.07;;;2.90;;
434;SDS011;204;48.942;9.256;2023-05-29T14:59:59;4.30;;;3.23;;
434;SDS011;204;48.942;9.256;2023-05-29T15:02:25;2.90;;;2.80;;
434;SDS011;204;48.942;9.256;2023-05-29T15:04:51;3.50;;;2.60;;
434;SDS011;204;48.942;9.256;2023-05-29T15:07:16;2.77;;;2.60;;
434;SDS011;204;48.942;9.256;2023-05-29T15:09:42;3.13;;;2.90;;
434;SDS011;204;48.942;9.256;2023-05-29T15:12:08;2.83;;;2.63;;
434;SDS011;204;48.942;9.256;2023-05-29T15:14:34;4.40;;;3.23;;
434;SDS011;204;48.942;9.256;2023-05-29T15:17:00;4.50;;;3.80;;
434;SDS011;204;48.942;9.256;2023-05-29T15:19:26;2.63;;;2.40;;
434;SDS011;204;48.942;9.256;2023-05-29T15:21:52;2.53;;;2.33;;
434;SDS011;204;48.942;9.256;2023-05-29T15:24:18;10.37;;;3.23;;
434;SDS011;204;48.942;9.256;2023-05-29T15:26:43;4.47;;;3.20;;
434;SDS011;204;48.942;9.256;2023-05-29T15:29:09;2.60;;;2.40;;
434;SDS011;204;48.942;9.256;2023-05-29T15:31:35;3.97;;;3.40;;
434;SDS011;204;48.942;9.256;2023-05-29T15:34:01;3.83;;;2.60;;
434;SDS011;204;48.942;9.256;2023-05-29T15:36:27;2.70;;;2.50;;
434;SDS011;204;48.942;9.256;2023-05-29T15:38:53;4.47;;;2.87;;
434;SDS011;204;48.942;9.256;2023-05-29T15:41:19;4.57;;;2.97;;
434;SDS011;204;48.942;9.256;2023-05-29T15:43:45;3.13;;;2.97;;
434;SDS011;204;48.942;9.256;2023-05-29T15:46:11;3.13;;;2.90;;
434;SDS011;204;48.942;9.256;2023-05-29T15:48:36;4.53;;;3.30;;
434;SDS011;204;48.942;9.256;2023-05-29T15:51:02;3.03;;;2.83;;
434;SDS011;204;48.942;9.256;2023-05-29T15:53:28;3.53;;;2.40;;
434;SDS011;204;48.942;9.256;2023-05-29T15:55:53;2.90;;;2.70;;
434;SDS011;204;48.942;9.256;2023-05-29T15:58:19;2.80;;;2.63;;
434;SDS011;204;48.942;9.256;2023-05-29T16:00:45;3.07;;;2.87;;
434;SDS011;204;48.942;9.256;2023-05-29T16:03:11;3.43;;;2.77;;